sensor_id;sensor_type;location;lat;lon;timestamp;P1;durP1;ratioP1;P2;durP2;ratioP2
20972;SDS011;10645;52.370;13.314;2022-08-01T00:02:09;2.25;;;2.05;;
20972;SDS011;10645;52.370;13.314;2022-08-01T00:04:35;3.40;;;2.00;;
20972;SDS011;10645;52.370;13.314;2022-08-01T00:07:01;3.40;;;1.77;;
20972;SDS011;10645;52.370;13.314;2022-08-01T00:09:28;2.42;;;1.88;;
20972;SDS011;10645;52.370;13.314;2022-08-01T00:11:54;2.83;;;2.58;;
20972;SDS011;10645;52.370;13.314;2022-08-01T00:14:20;1.70;;;1.60;;
20972;SDS011;10645;52.370;13.314;2022-08-01T00:16:46;1.70;;;1.60;;
20972;SDS011;10645;52.370;13.314;2022-08-01T00:19:12;2.00;;;1.90;;
20972;SDS011;10645;52.370;13.314;2022-08-01T00:21:38;1.85;;;1.75;;
20972;SDS011;10645;52.370;13.314;2022-08-01T00:24:04;2.78;;;1.98;;
20972;SDS011;10645;52.370;13.314;2022-08-01T00:26:30;2.03;;;1.90;;
20972;SDS011;10645;52.370;13.314;2022-08-01T00:28:56;3.22;;;2.92;;
20972;SDS011;10645;52.370;13.314;2022-08-01T00:31:22;2.67;;;2.47;;
20972;SDS011;10645;52.370;13.314;2022-08-01T00:33:49;2.45;;;1.75;;
20972;SDS011;10645;52.370;13.314;2022-08-01T00:36:15;2.03;;;1.92;;
20972;SDS011;10645;52.370;13.314;2022-08-01T00:38:41;2.28;;;1.98;;
20972;SDS011;10645;52.370;13.314;2022-08-01T00:41:07;2.13;;;1.92;;
20972;SDS011;10645;52.370;13.314;2022-08-01T00:43:33;1.75;;;1.65;;
20972;SDS011;10645;52.370;13.314;2022-08-01T00:45:59;2.67;;;2.47;;
20972;SDS011;10645;52.370;13.314;2022-08-01T00:48:25;2.28;;;2.08;;
20972;SDS011;10645;52.370;13.314;2022-08-01T00:50:51;3.70;;;2.15;;
20972;SDS011;10645;52.370;13.314;2022-08-01T00:53:17;3.58;;;2.10;;
20972;SDS011;10645;52.370;13.314;2022-08-01T00:55:43;1.88;;;1.75;;
20972;SDS011;10645;52.370;13.314;2022-08-01T00:58:09;2.35;;;2.08;;
20972;SDS011;10645;52.370;13.314;2022-08-01T01:00:36;2.53;;;2.33;;
20972;SDS011;10645;52.370;13.314;2022-08-01T01:03:02;2.67;;;2.47;;
20972;SDS011;10645;52.370;13.314;2022-08-01T01:05:28;2.40;;;2.17;;
20972;SDS011;10645;52.370;13.314;2022-08-01T01:13:08;3.70;;;2.75;;
20972;SDS011;10645;52.370;13.314;2022-08-01T01:16:08;1.88;;;1.73;;
20972;SDS011;10645;52.370;13.314;2022-08-01T01:18:34;3.00;;;2.78;;
20972;SDS011;10645;52.370;13.314;2022-08-01T01:23:44;2.00;;;1.90;;
20972;SDS011;10645;52.370;13.314;2022-08-01T01:26:40;2.65;;;2.33;;
20972;SDS011;10645;52.370;13.314;2022-08-01T01:31:59;2.40;;;2.20;;
20972;SDS011;10645;52.370;13.314;2022-08-01T01:34:32;2.60;;;1.63;;
20972;SDS011;10645;52.370;13.314;2022-08-01T01:37:02;2.35;;;2.20;;
20972;SDS011;10645;52.370;13.314;2022-08-01T01:39:32;2.58;;;2.38;;
20972;SDS011;10645;52.370;13.314;2022-08-01T01:42:00;3.17;;;2.60;;
20972;SDS011;10645;52.370;13.314;2022-08-01T01:44:27;5.22;;;2.78;;
20972;SDS011;10645;52.370;13.314;2022-08-01T01:46:55;2.55;;;2.30;;
20972;SDS011;10645;52.370;13.314;2022-08-01T01:49:26;2.55;;;2.35;;
20972;SDS011;10645;52.370;13.314;2022-08-01T01:51:54;3.80;;;2.70;;
20972;SDS011;10645;52.370;13.314;2022-08-01T01:54:28;2.65;;;2.45;;
20972;SDS011;10645;52.370;13.314;2022-08-01T01:57:00;2.50;;;2.28;;
20972;SDS011;10645;52.370;13.314;2022-08-01T01:59:30;2.40;;;1.60;;
20972;SDS011;10645;52.370;13.314;2022-08-01T02:01:59;2.42;;;1.88;;
20972;SDS011;10645;52.370;13.314;2022-08-01T02:04:28;2.60;;;1.90;;
20972;SDS011;10645;52.370;13.314;2022-08-01T02:06:55;2.22;;;2.03;;
20972;SDS011;10645;52.370;13.314;2022-08-01T02:09:23;3.15;;;2.92;;
20972;SDS011;10645;52.370;13.314;2022-08-01T02:11:51;2.75;;;2.55;;
20972;SDS011;10645;52.370;13.314;2022-08-01T02:14:19;2.05;;;1.85;;
20972;SDS011;10645;52.370;13.314;2022-08-01T02:16:48;1.98;;;1.85;;
20972;SDS011;10645;52.370;13.314;2022-08-01T02:19:16;7.75;;;2.42;;
20972;SDS011;10645;52.370;13.314;2022-08-01T02:26:55;1.80;;;1.70;;
20972;SDS011;10645;52.370;13.314;2022-08-01T02:29:31;3.08;;;2.22;;
20972;SDS011;10645;52.370;13.314;2022-08-01T02:32:03;2.90;;;2.70;;
20972;SDS011;10645;52.370;13.314;2022-08-01T02:34:33;1.70;;;1.60;;
20972;SDS011;10645;52.370;13.314;2022-08-01T02:37:01;1.95;;;1.85;;
20972;SDS011;10645;52.370;13.314;2022-08-01T02:39:28;2.55;;;2.35;;
20972;SDS011;10645;52.370;13.314;2022-08-01T02:42:02;2.20;;;2.05;;
20972;SDS011;10645;52.370;13.314;2022-08-01T02:44:31;2.38;;;1.88;;
20972;SDS011;10645;52.370;13.314;2022-08-01T02:47:02;2.03;;;1.92;;
20972;SDS011;10645;52.370;13.314;2022-08-01T02:49:31;2.78;;;2.58;;
20972;SDS011;10645;52.370;13.314;2022-08-01T02:52:00;3.42;;;2.30;;
20972;SDS011;10645;52.370;13.314;2022-08-01T02:54:29;2.25;;;2.05;;
20972;SDS011;10645;52.370;13.314;2022-08-01T02:56:57;3.90;;;2.17;;
20972;SDS011;10645;52.370;13.314;2022-08-01T02:59:24;2.70;;;2.10;;
20972;SDS011;10645;52.370;13.314;2022-08-01T03:01:53;3.72;;;2.72;;
20972;SDS011;10645;52.370;13.314;2022-08-01T03:04:22;2.00;;;1.80;;
20972;SDS011;10645;52.370;13.314;2022-08-01T03:06:50;2.85;;;2.15;;
20972;SDS011;10645;52.370;13.314;2022-08-01T03:09:18;2.30;;;2.13;;
20972;SDS011;10645;52.370;13.314;2022-08-01T03:11:45;2.28;;;2.03;;
20972;SDS011;10645;52.370;13.314;2022-08-01T03:14:13;2.95;;;2.75;;
20972;SDS011;10645;52.370;13.314;2022-08-01T03:16:41;2.70;;;2.50;;
20972;SDS011;10645;52.370;13.314;2022-08-01T03:19:09;2.53;;;2.03;;
20972;SDS011;10645;52.370;13.314;2022-08-01T03:21:37;5.50;;;2.08;;
20972;SDS011;10645;52.370;13.314;2022-08-01T03:24:06;2.67;;;2.47;;
20972;SDS011;10645;52.370;13.314;2022-08-01T03:26:36;3.13;;;2.83;;
20972;SDS011;10645;52.370;13.314;2022-08-01T03:29:04;2.78;;;2.53;;
20972;SDS011;10645;52.370;13.314;2022-08-01T03:31:33;2.30;;;2.10;;
20972;SDS011;10645;52.370;13.314;2022-08-01T03:34:00;3.15;;;2.38;;
20972;SDS011;10645;52.370;13.314;2022-08-01T03:36:27;2.58;;;1.80;;
20972;SDS011;10645;52.370;13.314;2022-08-01T03:38:56;2.60;;;2.40;;
20972;SDS011;10645;52.370;13.314;2022-08-01T03:41:23;2.25;;;2.08;;
20972;SDS011;10645;52.370;13.314;2022-08-01T03:44:00;8.95;;;5.95;;
20972;SDS011;10645;52.370;13.314;2022-08-01T03:46:46;35.88;;;25.30;;
20972;SDS011;10645;52.370;13.314;2022-08-01T03:49:30;15.60;;;14.07;;
20972;SDS011;10645;52.370;13.314;2022-08-01T03:51:59;5.90;;;2.88;;
20972;SDS011;10645;52.370;13.314;2022-08-01T03:54:34;2.35;;;2.05;;
20972;SDS011;10645;52.370;13.314;2022-08-01T03:57:02;2.97;;;2.78;;
20972;SDS011;10645;52.370;13.314;2022-08-01T03:59:30;2.47;;;2.28;;
20972;SDS011;10645;52.370;13.314;2022-08-01T04:01:57;2.80;;;2.60;;
20972;SDS011;10645;52.370;13.314;2022-08-01T04:04:24;2.53;;;2.30;;
20972;SDS011;10645;52.370;13.314;2022-08-01T04:06:50;2.22;;;1.75;;
20972;SDS011;10645;52.370;13.314;2022-08-01T04:09:19;2.38;;;2.10;;
20972;SDS011;10645;52.370;13.314;2022-08-01T04:11:47;2.75;;;2.30;;
20972;SDS011;10645;52.370;13.314;2022-08-01T04:14:13;2.05;;;1.95;;
20972;SDS011;10645;52.370;13.314;2022-08-01T04:16:40;1.95;;;1.85;;
20972;SDS011;10645;52.370;13.314;2022-08-01T04:19:06;2.70;;;2.50;;
20972;SDS011;10645;52.370;13.314;2022-08-01T04:21:34;8.68;;;3.85;;
20972;SDS011;10645;52.370;13.314;2022-08-01T04:24:06;5.20;;;2.65;;
20972;SDS011;10645;52.370;13.314;2022-08-01T04:26:41;2.38;;;2.17;;
20972;SDS011;10645;52.370;13.314;2022-08-01T04:29:10;2.35;;;2.20;;
20972;SDS011;10645;52.370;13.314;2022-08-01T04:31:39;4.63;;;2.65;;
20972;SDS011;10645;52.370;13.314;2022-08-01T04:34:08;2.38;;;2.17;;
20972;SDS011;10645;52.370;13.314;2022-08-01T04:36:37;2.83;;;2.28;;
20972;SDS011;10645;52.370;13.314;2022-08-01T04:39:04;2.50;;;2.28;;
20972;SDS011;10645;52.370;13.314;2022-08-01T04:41:31;2.72;;;2.53;;
20972;SDS011;10645;52.370;13.314;2022-08-01T04:43:58;2.42;;;2.22;;
20972;SDS011;10645;52.370;13.314;2022-08-01T04:46:25;1.73;;;1.63;;
20972;SDS011;10645;52.370;13.314;2022-08-01T04:48:53;2.65;;;2.38;;
20972;SDS011;10645;52.370;13.314;2022-08-01T04:51:20;2.42;;;1.90;;
20972;SDS011;10645;52.370;13.314;2022-08-01T04:53:47;3.58;;;2.10;;
20972;SDS011;10645;52.370;13.314;2022-08-01T04:56:16;4.28;;;3.15;;
20972;SDS011;10645;52.370;13.314;2022-08-01T04:58:43;5.20;;;2.97;;
20972;SDS011;10645;52.370;13.314;2022-08-01T05:01:10;2.88;;;2.40;;
20972;SDS011;10645;52.370;13.314;2022-08-01T05:03:36;3.38;;;2.55;;
20972;SDS011;10645;52.370;13.314;2022-08-01T05:06:02;1.98;;;1.75;;
20972;SDS011;10645;52.370;13.314;2022-08-01T05:08:28;5.78;;;2.53;;
20972;SDS011;10645;52.370;13.314;2022-08-01T05:10:55;3.15;;;2.15;;
20972;SDS011;10645;52.370;13.314;2022-08-01T05:13:21;3.00;;;1.80;;
20972;SDS011;10645;52.370;13.314;2022-08-01T05:15:47;2.60;;;2.08;;
20972;SDS011;10645;52.370;13.314;2022-08-01T05:18:13;2.38;;;2.20;;
20972;SDS011;10645;52.370;13.314;2022-08-01T05:20:39;2.85;;;2.17;;
20972;SDS011;10645;52.370;13.314;2022-08-01T05:23:06;2.58;;;2.22;;
20972;SDS011;10645;52.370;13.314;2022-08-01T05:25:33;2.15;;;1.80;;
20972;SDS011;10645;52.370;13.314;2022-08-01T05:27:59;2.60;;;2.35;;
20972;SDS011;10645;52.370;13.314;2022-08-01T05:30:25;3.03;;;2.17;;
20972;SDS011;10645;52.370;13.314;2022-08-01T05:32:51;2.17;;;1.77;;
20972;SDS011;10645;52.370;13.314;2022-08-01T05:35:17;1.63;;;1.50;;
20972;SDS011;10645;52.370;13.314;2022-08-01T05:37:43;1.90;;;1.80;;
20972;SDS011;10645;52.370;13.314;2022-08-01T05:40:09;4.72;;;2.95;;
20972;SDS011;10645;52.370;13.314;2022-08-01T05:42:36;1.52;;;1.42;;
20972;SDS011;10645;52.370;13.314;2022-08-01T05:45:02;1.58;;;1.48;;
20972;SDS011;10645;52.370;13.314;2022-08-01T05:47:28;2.13;;;1.98;;
20972;SDS011;10645;52.370;13.314;2022-08-01T05:49:54;2.30;;;1.85;;
20972;SDS011;10645;52.370;13.314;2022-08-01T05:52:20;6.22;;;3.38;;
20972;SDS011;10645;52.370;13.314;2022-08-01T05:54:46;1.40;;;1.30;;
20972;SDS011;10645;52.370;13.314;2022-08-01T05:57:12;4.22;;;1.77;;
20972;SDS011;10645;52.370;13.314;2022-08-01T05:59:39;3.58;;;2.05;;
20972;SDS011;10645;52.370;13.314;2022-08-01T06:02:05;1.70;;;1.30;;
20972;SDS011;10645;52.370;13.314;2022-08-01T06:04:31;3.63;;;1.95;;
20972;SDS011;10645;52.370;13.314;2022-08-01T06:06:57;1.33;;;1.17;;
20972;SDS011;10645;52.370;13.314;2022-08-01T06:09:23;1.98;;;1.40;;
20972;SDS011;10645;52.370;13.314;2022-08-01T06:11:49;1.40;;;1.30;;
20972;SDS011;10645;52.370;13.314;2022-08-01T06:14:15;1.85;;;1.48;;
20972;SDS011;10645;52.370;13.314;2022-08-01T06:16:42;1.08;;;1.00;;
20972;SDS011;10645;52.370;13.314;2022-08-01T06:19:08;1.67;;;1.52;;
20972;SDS011;10645;52.370;13.314;2022-08-01T06:21:34;1.60;;;1.10;;
20972;SDS011;10645;52.370;13.314;2022-08-01T06:24:00;1.88;;;1.77;;
20972;SDS011;10645;52.370;13.314;2022-08-01T06:26:26;1.92;;;1.80;;
20972;SDS011;10645;52.370;13.314;2022-08-01T06:28:52;1.33;;;1.23;;
20972;SDS011;10645;52.370;13.314;2022-08-01T06:31:18;1.50;;;1.40;;
20972;SDS011;10645;52.370;13.314;2022-08-01T06:33:44;1.55;;;1.45;;
20972;SDS011;10645;52.370;13.314;2022-08-01T06:36:10;1.55;;;1.45;;
20972;SDS011;10645;52.370;13.314;2022-08-01T06:38:37;2.58;;;0.88;;
20972;SDS011;10645;52.370;13.314;2022-08-01T06:41:03;1.20;;;1.10;;
20972;SDS011;10645;52.370;13.314;2022-08-01T06:43:29;2.28;;;1.00;;
20972;SDS011;10645;52.370;13.314;2022-08-01T06:45:55;1.08;;;0.98;;
20972;SDS011;10645;52.370;13.314;2022-08-01T06:48:21;1.17;;;1.17;;
20972;SDS011;10645;52.370;13.314;2022-08-01T06:50:47;1.00;;;0.70;;
20972;SDS011;10645;52.370;13.314;2022-08-01T06:53:13;0.82;;;0.82;;
20972;SDS011;10645;52.370;13.314;2022-08-01T06:55:39;0.65;;;0.65;;
20972;SDS011;10645;52.370;13.314;2022-08-01T06:58:06;0.90;;;0.90;;
20972;SDS011;10645;52.370;13.314;2022-08-01T07:00:32;4.30;;;1.90;;
20972;SDS011;10645;52.370;13.314;2022-08-01T07:02:58;0.85;;;0.82;;
20972;SDS011;10645;52.370;13.314;2022-08-01T07:05:25;1.60;;;1.40;;
20972;SDS011;10645;52.370;13.314;2022-08-01T07:07:51;1.90;;;1.10;;
20972;SDS011;10645;52.370;13.314;2022-08-01T07:10:17;1.33;;;1.27;;
20972;SDS011;10645;52.370;13.314;2022-08-01T07:12:44;1.60;;;1.50;;
20972;SDS011;10645;52.370;13.314;2022-08-01T07:15:10;1.73;;;1.42;;
20972;SDS011;10645;52.370;13.314;2022-08-01T07:17:40;2.80;;;1.67;;
20972;SDS011;10645;52.370;13.314;2022-08-01T07:20:08;1.67;;;1.40;;
20972;SDS011;10645;52.370;13.314;2022-08-01T07:22:36;1.35;;;1.20;;
20972;SDS011;10645;52.370;13.314;2022-08-01T07:25:03;3.17;;;1.63;;
20972;SDS011;10645;52.370;13.314;2022-08-01T07:27:30;1.00;;;1.00;;
20972;SDS011;10645;52.370;13.314;2022-08-01T07:29:57;0.80;;;0.80;;
20972;SDS011;10645;52.370;13.314;2022-08-01T07:32:23;2.13;;;1.92;;
20972;SDS011;10645;52.370;13.314;2022-08-01T07:34:49;2.63;;;0.93;;
20972;SDS011;10645;52.370;13.314;2022-08-01T07:37:15;2.28;;;1.05;;
20972;SDS011;10645;52.370;13.314;2022-08-01T07:39:41;1.38;;;1.23;;
20972;SDS011;10645;52.370;13.314;2022-08-01T07:42:08;1.75;;;1.65;;
20972;SDS011;10645;52.370;13.314;2022-08-01T07:44:34;2.05;;;1.85;;
20972;SDS011;10645;52.370;13.314;2022-08-01T07:47:01;3.13;;;1.40;;
20972;SDS011;10645;52.370;13.314;2022-08-01T07:49:27;1.10;;;1.00;;
20972;SDS011;10645;52.370;13.314;2022-08-01T07:51:53;1.35;;;1.25;;
20972;SDS011;10645;52.370;13.314;2022-08-01T07:54:19;2.55;;;1.85;;
20972;SDS011;10645;52.370;13.314;2022-08-01T07:56:45;1.50;;;1.02;;
20972;SDS011;10645;52.370;13.314;2022-08-01T07:59:11;1.40;;;1.10;;
20972;SDS011;10645;52.370;13.314;2022-08-01T08:01:37;1.77;;;1.48;;
20972;SDS011;10645;52.370;13.314;2022-08-01T08:04:04;1.60;;;1.15;;
20972;SDS011;10645;52.370;13.314;2022-08-01T08:06:30;1.70;;;1.60;;
20972;SDS011;10645;52.370;13.314;2022-08-01T08:08:56;2.38;;;2.15;;
20972;SDS011;10645;52.370;13.314;2022-08-01T08:11:22;1.38;;;1.27;;
20972;SDS011;10645;52.370;13.314;2022-08-01T08:13:48;1.92;;;1.83;;
20972;SDS011;10645;52.370;13.314;2022-08-01T08:16:14;5.72;;;2.25;;
20972;SDS011;10645;52.370;13.314;2022-08-01T08:18:40;2.97;;;2.70;;
20972;SDS011;10645;52.370;13.314;2022-08-01T08:21:06;4.70;;;2.92;;
20972;SDS011;10645;52.370;13.314;2022-08-01T08:23:32;4.75;;;2.03;;
20972;SDS011;10645;52.370;13.314;2022-08-01T08:26:17;3.28;;;2.30;;
20972;SDS011;10645;52.370;13.314;2022-08-01T08:28:43;2.45;;;2.05;;
20972;SDS011;10645;52.370;13.314;2022-08-01T08:31:10;3.13;;;2.72;;
20972;SDS011;10645;52.370;13.314;2022-08-01T08:33:36;2.80;;;2.53;;
20972;SDS011;10645;52.370;13.314;2022-08-01T08:36:02;3.95;;;3.20;;
20972;SDS011;10645;52.370;13.314;2022-08-01T08:38:28;2.05;;;1.83;;
20972;SDS011;10645;52.370;13.314;2022-08-01T08:40:54;2.58;;;2.00;;
20972;SDS011;10645;52.370;13.314;2022-08-01T08:43:21;1.73;;;1.60;;
20972;SDS011;10645;52.370;13.314;2022-08-01T08:45:50;1.88;;;1.63;;
20972;SDS011;10645;52.370;13.314;2022-08-01T08:48:16;4.40;;;1.73;;
20972;SDS011;10645;52.370;13.314;2022-08-01T08:50:43;1.17;;;1.08;;
20972;SDS011;10645;52.370;13.314;2022-08-01T08:53:10;1.17;;;0.98;;
20972;SDS011;10645;52.370;13.314;2022-08-01T08:55:40;1.70;;;1.40;;
20972;SDS011;10645;52.370;13.314;2022-08-01T08:58:11;1.67;;;1.10;;
20972;SDS011;10645;52.370;13.314;2022-08-01T09:00:39;0.93;;;0.77;;
20972;SDS011;10645;52.370;13.314;2022-08-01T09:03:05;1.45;;;1.30;;
20972;SDS011;10645;52.370;13.314;2022-08-01T09:05:32;1.42;;;1.33;;
20972;SDS011;10645;52.370;13.314;2022-08-01T09:07:58;0.75;;;0.70;;
20972;SDS011;10645;52.370;13.314;2022-08-01T09:10:24;1.08;;;1.00;;
20972;SDS011;10645;52.370;13.314;2022-08-01T09:13:10;0.80;;;0.80;;
20972;SDS011;10645;52.370;13.314;2022-08-01T09:21:07;0.70;;;0.70;;
20972;SDS011;10645;52.370;13.314;2022-08-01T09:23:39;1.67;;;1.58;;
20972;SDS011;10645;52.370;13.314;2022-08-01T09:26:11;0.82;;;0.60;;
20972;SDS011;10645;52.370;13.314;2022-08-01T09:28:40;0.90;;;0.80;;
20972;SDS011;10645;52.370;13.314;2022-08-01T09:31:08;0.60;;;0.52;;
20972;SDS011;10645;52.370;13.314;2022-08-01T09:33:47;0.85;;;0.77;;
20972;SDS011;10645;52.370;13.314;2022-08-01T09:36:14;0.80;;;0.80;;
20972;SDS011;10645;52.370;13.314;2022-08-01T09:38:40;1.10;;;0.68;;
20972;SDS011;10645;52.370;13.314;2022-08-01T09:41:06;8.45;;;2.30;;
20972;SDS011;10645;52.370;13.314;2022-08-01T09:43:33;0.82;;;0.82;;
20972;SDS011;10645;52.370;13.314;2022-08-01T09:46:02;5.65;;;1.15;;
20972;SDS011;10645;52.370;13.314;2022-08-01T09:48:33;1.30;;;1.20;;
20972;SDS011;10645;52.370;13.314;2022-08-01T09:51:02;0.52;;;0.52;;
20972;SDS011;10645;52.370;13.314;2022-08-01T09:53:39;1.35;;;1.05;;
20972;SDS011;10645;52.370;13.314;2022-08-01T09:56:10;0.90;;;0.90;;
20972;SDS011;10645;52.370;13.314;2022-08-01T09:58:50;1.27;;;0.77;;
20972;SDS011;10645;52.370;13.314;2022-08-01T10:01:25;0.60;;;0.60;;
20972;SDS011;10645;52.370;13.314;2022-08-01T10:04:06;0.68;;;0.68;;
20972;SDS011;10645;52.370;13.314;2022-08-01T10:06:37;1.65;;;0.70;;
20972;SDS011;10645;52.370;13.314;2022-08-01T10:09:04;1.33;;;0.95;;
20972;SDS011;10645;52.370;13.314;2022-08-01T10:11:30;1.23;;;0.88;;
20972;SDS011;10645;52.370;13.314;2022-08-01T10:13:57;0.95;;;0.80;;
20972;SDS011;10645;52.370;13.314;2022-08-01T10:16:26;0.75;;;0.75;;
20972;SDS011;10645;52.370;13.314;2022-08-01T10:18:54;1.77;;;0.77;;
20972;SDS011;10645;52.370;13.314;2022-08-01T10:21:21;0.52;;;0.52;;
20972;SDS011;10645;52.370;13.314;2022-08-01T10:23:49;0.60;;;0.60;;
20972;SDS011;10645;52.370;13.314;2022-08-01T10:26:15;0.93;;;0.43;;
20972;SDS011;10645;52.370;13.314;2022-08-01T10:28:41;0.70;;;0.50;;
20972;SDS011;10645;52.370;13.314;2022-08-01T10:31:13;0.47;;;0.40;;
20972;SDS011;10645;52.370;13.314;2022-08-01T10:33:40;0.95;;;0.50;;
20972;SDS011;10645;52.370;13.314;2022-08-01T10:36:07;0.55;;;0.55;;
20972;SDS011;10645;52.370;13.314;2022-08-01T10:38:35;0.45;;;0.45;;
20972;SDS011;10645;52.370;13.314;2022-08-01T10:41:02;0.60;;;0.60;;
20972;SDS011;10645;52.370;13.314;2022-08-01T10:43:29;0.55;;;0.40;;
20972;SDS011;10645;52.370;13.314;2022-08-01T10:45:55;0.40;;;0.40;;
20972;SDS011;10645;52.370;13.314;2022-08-01T10:48:24;0.50;;;0.50;;
20972;SDS011;10645;52.370;13.314;2022-08-01T10:51:00;0.75;;;0.63;;
20972;SDS011;10645;52.370;13.314;2022-08-01T10:53:29;0.52;;;0.50;;
20972;SDS011;10645;52.370;13.314;2022-08-01T10:56:02;0.70;;;0.70;;
20972;SDS011;10645;52.370;13.314;2022-08-01T11:08:58;0.80;;;0.80;;
20972;SDS011;10645;52.370;13.314;2022-08-01T11:14:29;0.90;;;0.90;;
20972;SDS011;10645;52.370;13.314;2022-08-01T11:16:55;0.70;;;0.68;;
20972;SDS011;10645;52.370;13.314;2022-08-01T11:19:22;0.70;;;0.70;;
20972;SDS011;10645;52.370;13.314;2022-08-01T11:24:54;8.45;;;1.13;;
20972;SDS011;10645;52.370;13.314;2022-08-01T11:27:23;0.50;;;0.50;;
20972;SDS011;10645;52.370;13.314;2022-08-01T11:32:45;0.60;;;0.60;;
20972;SDS011;10645;52.370;13.314;2022-08-01T11:35:18;0.70;;;0.52;;
20972;SDS011;10645;52.370;13.314;2022-08-01T11:37:46;1.05;;;1.05;;
20972;SDS011;10645;52.370;13.314;2022-08-01T11:45:49;0.77;;;0.77;;
20972;SDS011;10645;52.370;13.314;2022-08-01T11:48:23;0.50;;;0.50;;
20972;SDS011;10645;52.370;13.314;2022-08-01T11:50:54;0.80;;;0.80;;
20972;SDS011;10645;52.370;13.314;2022-08-01T11:53:21;0.60;;;0.60;;
20972;SDS011;10645;52.370;13.314;2022-08-01T11:55:49;0.60;;;0.60;;
20972;SDS011;10645;52.370;13.314;2022-08-01T11:58:20;0.50;;;0.50;;
20972;SDS011;10645;52.370;13.314;2022-08-01T12:00:55;0.45;;;0.45;;
20972;SDS011;10645;52.370;13.314;2022-08-01T12:03:24;1.05;;;0.77;;
20972;SDS011;10645;52.370;13.314;2022-08-01T12:05:53;0.93;;;0.93;;
20972;SDS011;10645;52.370;13.314;2022-08-01T12:08:24;0.85;;;0.85;;
20972;SDS011;10645;52.370;13.314;2022-08-01T12:10:53;0.70;;;0.50;;
20972;SDS011;10645;52.370;13.314;2022-08-01T12:13:20;1.08;;;0.82;;
20972;SDS011;10645;52.370;13.314;2022-08-01T12:15:46;0.90;;;0.73;;
20972;SDS011;10645;52.370;13.314;2022-08-01T12:18:13;0.98;;;0.98;;
20972;SDS011;10645;52.370;13.314;2022-08-01T12:20:40;0.80;;;0.80;;
20972;SDS011;10645;52.370;13.314;2022-08-01T12:23:10;0.70;;;0.70;;
20972;SDS011;10645;52.370;13.314;2022-08-01T12:25:38;0.65;;;0.65;;
20972;SDS011;10645;52.370;13.314;2022-08-01T12:28:06;0.80;;;0.68;;
20972;SDS011;10645;52.370;13.314;2022-08-01T12:30:34;0.65;;;0.65;;
20972;SDS011;10645;52.370;13.314;2022-08-01T12:33:03;1.45;;;1.17;;
20972;SDS011;10645;52.370;13.314;2022-08-01T12:35:31;0.80;;;0.80;;
20972;SDS011;10645;52.370;13.314;2022-08-01T12:38:03;0.65;;;0.65;;
20972;SDS011;10645;52.370;13.314;2022-08-01T12:40:32;0.63;;;0.63;;
20972;SDS011;10645;52.370;13.314;2022-08-01T12:43:01;1.23;;;0.75;;
20972;SDS011;10645;52.370;13.314;2022-08-01T12:45:39;0.63;;;0.63;;
20972;SDS011;10645;52.370;13.314;2022-08-01T12:48:10;0.50;;;0.50;;
20972;SDS011;10645;52.370;13.314;2022-08-01T12:50:38;1.02;;;1.02;;
20972;SDS011;10645;52.370;13.314;2022-08-01T12:53:07;1.77;;;0.70;;
20972;SDS011;10645;52.370;13.314;2022-08-01T12:55:40;0.57;;;0.57;;
20972;SDS011;10645;52.370;13.314;2022-08-01T12:58:11;1.17;;;1.08;;
20972;SDS011;10645;52.370;13.314;2022-08-01T13:00:39;0.40;;;0.40;;
20972;SDS011;10645;52.370;13.314;2022-08-01T13:03:17;0.77;;;0.77;;
20972;SDS011;10645;52.370;13.314;2022-08-01T13:08:18;0.40;;;0.40;;
20972;SDS011;10645;52.370;13.314;2022-08-01T13:10:46;0.82;;;0.60;;
20972;SDS011;10645;52.370;13.314;2022-08-01T13:13:14;2.60;;;0.50;;
20972;SDS011;10645;52.370;13.314;2022-08-01T13:15:42;0.30;;;0.30;;
20972;SDS011;10645;52.370;13.314;2022-08-01T13:18:25;0.32;;;0.32;;
20972;SDS011;10645;52.370;13.314;2022-08-01T13:23:36;0.50;;;0.50;;
20972;SDS011;10645;52.370;13.314;2022-08-01T13:26:03;0.57;;;0.57;;
20972;SDS011;10645;52.370;13.314;2022-08-01T13:28:29;0.50;;;0.50;;
20972;SDS011;10645;52.370;13.314;2022-08-01T13:31:00;0.70;;;0.70;;
20972;SDS011;10645;52.370;13.314;2022-08-01T13:33:42;2.28;;;0.55;;
20972;SDS011;10645;52.370;13.314;2022-08-01T13:36:13;0.70;;;0.70;;
20972;SDS011;10645;52.370;13.314;2022-08-01T13:38:40;0.30;;;0.30;;
20972;SDS011;10645;52.370;13.314;2022-08-01T13:41:25;0.50;;;0.50;;
20972;SDS011;10645;52.370;13.314;2022-08-01T13:43:52;0.40;;;0.40;;
20972;SDS011;10645;52.370;13.314;2022-08-01T13:46:18;0.35;;;0.35;;
20972;SDS011;10645;52.370;13.314;2022-08-01T13:48:45;0.70;;;0.65;;
20972;SDS011;10645;52.370;13.314;2022-08-01T13:51:11;0.60;;;0.60;;
20972;SDS011;10645;52.370;13.314;2022-08-01T13:53:37;0.40;;;0.40;;
20972;SDS011;10645;52.370;13.314;2022-08-01T13:56:03;0.28;;;0.28;;
20972;SDS011;10645;52.370;13.314;2022-08-01T13:58:29;0.25;;;0.22;;
20972;SDS011;10645;52.370;13.314;2022-08-01T14:00:55;0.30;;;0.30;;
20972;SDS011;10645;52.370;13.314;2022-08-01T14:03:22;0.50;;;0.40;;
20972;SDS011;10645;52.370;13.314;2022-08-01T14:05:48;0.50;;;0.43;;
20972;SDS011;10645;52.370;13.314;2022-08-01T14:08:14;0.10;;;0.10;;
20972;SDS011;10645;52.370;13.314;2022-08-01T14:10:41;1.77;;;0.38;;
20972;SDS011;10645;52.370;13.314;2022-08-01T14:13:07;0.17;;;0.17;;
20972;SDS011;10645;52.370;13.314;2022-08-01T14:15:33;0.52;;;0.40;;
20972;SDS011;10645;52.370;13.314;2022-08-01T14:17:59;1.30;;;0.43;;
20972;SDS011;10645;52.370;13.314;2022-08-01T14:20:25;0.52;;;0.30;;
20972;SDS011;10645;52.370;13.314;2022-08-01T14:22:51;0.10;;;0.10;;
20972;SDS011;10645;52.370;13.314;2022-08-01T14:25:18;4.30;;;1.67;;
20972;SDS011;10645;52.370;13.314;2022-08-01T14:27:44;0.25;;;0.25;;
20972;SDS011;10645;52.370;13.314;2022-08-01T14:30:11;0.45;;;0.45;;
20972;SDS011;10645;52.370;13.314;2022-08-01T14:32:37;0.45;;;0.35;;
20972;SDS011;10645;52.370;13.314;2022-08-01T14:35:04;0.47;;;0.47;;
20972;SDS011;10645;52.370;13.314;2022-08-01T14:37:32;0.20;;;0.20;;
20972;SDS011;10645;52.370;13.314;2022-08-01T14:39:58;0.22;;;0.22;;
20972;SDS011;10645;52.370;13.314;2022-08-01T14:42:25;0.80;;;0.45;;
20972;SDS011;10645;52.370;13.314;2022-08-01T14:44:51;0.30;;;0.30;;
20972;SDS011;10645;52.370;13.314;2022-08-01T14:47:18;0.38;;;0.38;;
20972;SDS011;10645;52.370;13.314;2022-08-01T14:49:44;0.22;;;0.22;;
20972;SDS011;10645;52.370;13.314;2022-08-01T14:52:10;0.32;;;0.32;;
20972;SDS011;10645;52.370;13.314;2022-08-01T14:54:36;0.40;;;0.40;;
20972;SDS011;10645;52.370;13.314;2022-08-01T14:57:02;0.43;;;0.20;;
20972;SDS011;10645;52.370;13.314;2022-08-01T14:59:28;0.10;;;0.10;;
20972;SDS011;10645;52.370;13.314;2022-08-01T15:01:54;0.35;;;0.35;;
20972;SDS011;10645;52.370;13.314;2022-08-01T15:04:20;0.17;;;0.17;;
20972;SDS011;10645;52.370;13.314;2022-08-01T15:06:46;0.45;;;0.45;;
20972;SDS011;10645;52.370;13.314;2022-08-01T15:09:12;0.40;;;0.40;;
20972;SDS011;10645;52.370;13.314;2022-08-01T15:11:38;0.47;;;0.47;;
20972;SDS011;10645;52.370;13.314;2022-08-01T15:14:05;0.25;;;0.22;;
20972;SDS011;10645;52.370;13.314;2022-08-01T15:16:49;0.50;;;0.45;;
20972;SDS011;10645;52.370;13.314;2022-08-01T15:19:15;0.90;;;0.38;;
20972;SDS011;10645;52.370;13.314;2022-08-01T15:21:42;0.47;;;0.47;;
20972;SDS011;10645;52.370;13.314;2022-08-01T15:24:08;0.50;;;0.50;;
20972;SDS011;10645;52.370;13.314;2022-08-01T15:26:34;1.05;;;0.50;;
20972;SDS011;10645;52.370;13.314;2022-08-01T15:29:01;0.38;;;0.38;;
20972;SDS011;10645;52.370;13.314;2022-08-01T15:31:27;0.57;;;0.57;;